Arenzano, Italy

1:31 AM CET on January 22, 2017 (GMT +0100)
Genoa | | Change Station
Active Advisory: >

Elev 10 ft 44.42 °N, 8.85 °E | Updated 11 minutes ago

Clear
Clear
43 °F
Feels Like 37 °F
N
10
Wind Variable Wind from NE

Today
High -- | Low -- °F
--% Chance of Precip.
Yesterday
High -- | Low -- °F
Precip. -- in
Pressure 30.27 in
Visibility -9999.0 miles
Clouds
Windchill 37 °F
Dew Point 25 °F
Humidity 49%
Rainfall 0.00 in
Snow Depth Not available.
7:53 AM 5:20 PM
Waning Crescent, 31% visible
METAR LIMJ 220020Z 05009KT 010V080 CAVOK 06/M04 Q1025
Pressure 30.27 in
Visibility -9999.0 miles
Clouds
Windchill 37 °F
Dew Point 25 °F
Humidity 49%
Rainfall 0.00 in
Snow Depth Not available.
7:53 AM 5:20 PM
Waning Crescent, 31% visible
METAR LIMJ 220020Z 05009KT 010V080 CAVOK 06/M04 Q1025

Get Your Daily Forecast Email!

Thanks for signing up!

Be on the lookout for a verification email in your inbox.

You'll start receiving the daily forecast at 8 AM.

×

10-Day Weather Forecast

×

Almanac

Astronomy

Jan. 22, 2017 Rise Set
Actual Time
Civil Twilight
Nautical Twilight
Astronomical Twilight
Moon
Length of Visible Light
Length of Day
Tomorrow will be .
, % of the Moon is Illuminated

Today's Extremes

Country Highs Country Lows

Community

WunderPhotos

Upload Photos

1,962,540 photos uploaded!

WunderBlog® & News

Nearby

Air Quality

  Air Quality AQ Index Pollutant
Not available.

Snow Depth

Station Depth Elevation

Earthquake Activity

City Distance Mag. Time & Date
Minimum magnitude displayed is 2.5.

Coastal Water Temperatures

Place Temperature

Stations

Nearby Weather Stations

Station Location Temp. Windchill Dew Point Humidity Wind Precip. Elev Updated Type